Time;durP1;ratioP1;P1;durP2;ratioP2;P2;SDS_P1;SDS_P2;PMS_P1;PMS_P2;Temp;Humidity;BMP_temperature;BMP_pressure;BME280_temperature;BME280_humidity;BME280_pressure;Samples;Min_cycle;Max_cycle;Signal;HPM_P1;HPM_P2
2022/09/05 00:03:10;;;;;;;0.85;0.85;;;;;;;;;;10507662;28;20838;-83
2022/09/05 00:08:17;;;;;;;0.70;0.70;;;;;;;;;;10506255;28;20221;-83
2022/09/05 00:13:23;;;;;;;1.00;0.68;;;;;;;;;;10506990;28;20737;-82
2022/09/05 00:18:36;;;;;;;0.60;0.60;;;;;;;;;;10470233;28;20225;-82
2022/09/05 00:23:40;;;;;;;0.60;0.60;;;;;;;;;;10452247;28;20230;-82
2022/09/05 00:28:51;;;;;;;0.70;0.70;;;;;;;;;;10485089;28;20244;-81
2022/09/05 00:33:56;;;;;;;0.73;0.73;;;;;;;;;;10460798;28;20329;-81
2022/09/05 00:38:59;;;;;;;0.73;0.73;;;;;;;;;;10479523;28;20233;-81
2022/09/05 00:44:01;;;;;;;0.60;0.60;;;;;;;;;;10483985;28;20571;-82
2022/09/05 00:49:02;;;;;;;0.70;0.70;;;;;;;;;;10490376;28;20210;-81
2022/09/05 00:54:03;;;;;;;0.77;0.77;;;;;;;;;;10500811;28;20225;-82
2022/09/05 00:59:23;;;;;;;0.82;0.82;;;;;;;;;;10522037;28;20237;-82
2022/09/05 01:04:34;;;;;;;0.80;0.80;;;;;;;;;;10519326;28;20249;-80
2022/09/05 01:09:50;;;;;;;0.82;0.82;;;;;;;;;;10499075;28;20232;-81
2022/09/05 01:15:03;;;;;;;0.80;0.80;;;;;;;;;;10500707;28;20653;-82
2022/09/05 01:20:07;;;;;;;0.73;0.73;;;;;;;;;;10471880;28;20230;-82
2022/09/05 01:25:18;;;;;;;0.70;0.70;;;;;;;;;;10496842;28;20202;-82
2022/09/05 01:30:21;;;;;;;0.80;0.80;;;;;;;;;;10499682;28;20196;-82
2022/09/05 01:35:44;;;;;;;0.70;0.70;;;;;;;;;;10475624;28;20177;-81
2022/09/05 01:40:55;;;;;;;0.88;0.88;;;;;;;;;;10499664;28;20222;-81
2022/09/05 01:46:20;;;;;;;0.75;0.75;;;;;;;;;;10498662;28;20210;-82
2022/09/05 01:51:34;;;;;;;1.05;1.05;;;;;;;;;;10476199;28;20353;-82
2022/09/05 01:56:40;;;;;;;0.68;0.68;;;;;;;;;;10499068;28;20232;-82
2022/09/05 02:01:53;;;;;;;2.47;0.80;;;;;;;;;;10497179;28;20228;-83
2022/09/05 02:07:01;;;;;;;0.88;0.88;;;;;;;;;;10479065;28;20241;-82
2022/09/05 02:12:09;;;;;;;0.82;0.82;;;;;;;;;;10501673;28;20248;-82
2022/09/05 02:17:19;;;;;;;0.98;0.98;;;;;;;;;;10504952;28;20213;-82
2022/09/05 02:22:23;;;;;;;0.88;0.88;;;;;;;;;;10499789;28;20222;-82
2022/09/05 02:27:40;;;;;;;1.00;1.00;;;;;;;;;;10481879;28;20251;-82
2022/09/05 02:32:48;;;;;;;0.85;0.85;;;;;;;;;;10500709;28;20253;-82
2022/09/05 02:37:51;;;;;;;0.82;0.82;;;;;;;;;;10510136;28;20213;-82
2022/09/05 02:43:05;;;;;;;1.33;0.80;;;;;;;;;;10499590;28;20240;-82
2022/09/05 02:48:18;;;;;;;1.05;1.05;;;;;;;;;;10444194;28;20211;-83
2022/09/05 02:53:20;;;;;;;1.27;0.85;;;;;;;;;;10488454;28;23007;-82
2022/09/05 02:58:45;;;;;;;1.20;1.20;;;;;;;;;;10482349;28;20252;-82
2022/09/05 03:03:54;;;;;;;0.80;0.80;;;;;;;;;;10471715;28;20225;-82
2022/09/05 03:08:58;;;;;;;0.82;0.82;;;;;;;;;;10497150;28;20598;-82
2022/09/05 03:14:18;;;;;;;0.90;0.85;;;;;;;;;;10481811;28;20663;-82
2022/09/05 03:19:38;;;;;;;0.70;0.70;;;;;;;;;;10498265;28;20268;-82
2022/09/05 03:24:39;;;;;;;0.85;0.85;;;;;;;;;;10513551;28;20278;-82
2022/09/05 03:29:56;;;;;;;1.15;1.15;;;;;;;;;;10512388;28;20225;-81
2022/09/05 03:35:19;;;;;;;1.40;0.90;;;;;;;;;;10478913;28;20224;-82
2022/09/05 03:40:40;;;;;;;1.10;1.10;;;;;;;;;;10506486;28;20220;-82
2022/09/05 03:45:47;;;;;;;1.05;1.05;;;;;;;;;;10450541;28;20218;-81
2022/09/05 03:51:08;;;;;;;1.08;1.08;;;;;;;;;;10506445;28;20213;-80
2022/09/05 03:56:28;;;;;;;1.08;1.08;;;;;;;;;;10469166;28;20292;-81
2022/09/05 04:01:34;;;;;;;0.98;0.98;;;;;;;;;;10478757;28;20222;-81
2022/09/05 04:06:44;;;;;;;1.17;1.17;;;;;;;;;;10505927;28;20636;-81
2022/09/05 04:11:47;;;;;;;1.00;1.00;;;;;;;;;;10504792;28;20696;-80
2022/09/05 04:16:50;;;;;;;1.33;1.33;;;;;;;;;;10499381;28;20218;-80
2022/09/05 04:21:57;;;;;;;1.20;1.20;;;;;;;;;;10502804;28;20234;-81
2022/09/05 04:27:19;;;;;;;1.30;1.23;;;;;;;;;;10502494;28;20217;-82
2022/09/05 04:32:20;;;;;;;1.40;1.30;;;;;;;;;;10498102;28;20681;-81
2022/09/05 04:37:39;;;;;;;1.33;1.33;;;;;;;;;;10485934;28;20216;-81
2022/09/05 04:42:41;;;;;;;1.20;1.20;;;;;;;;;;10479649;28;20668;-81
2022/09/05 04:47:51;;;;;;;0.95;0.95;;;;;;;;;;10501633;28;20659;-82
2022/09/05 04:52:52;;;;;;;1.63;1.30;;;;;;;;;;10482275;28;20256;-82
2022/09/05 04:57:56;;;;;;;1.48;1.38;;;;;;;;;;10505758;28;20275;-81
2022/09/05 05:02:59;;;;;;;1.13;1.13;;;;;;;;;;10479939;28;20226;-81
2022/09/05 05:08:05;;;;;;;1.30;1.30;;;;;;;;;;10486171;28;20282;-81
2022/09/05 05:13:10;;;;;;;1.23;1.13;;;;;;;;;;10498584;28;20229;-81
2022/09/05 05:18:20;;;;;;;1.35;1.35;;;;;;;;;;10500607;28;20249;-81
2022/09/05 05:23:38;;;;;;;1.10;1.10;;;;;;;;;;10478568;28;20252;-81
2022/09/05 05:28:47;;;;;;;1.40;1.40;;;;;;;;;;10503306;28;20216;-80
2022/09/05 05:33:49;;;;;;;1.60;1.50;;;;;;;;;;10496156;28;20246;-80
2022/09/05 05:39:04;;;;;;;1.58;1.50;;;;;;;;;;10499848;28;20727;-81
2022/09/05 05:44:10;;;;;;;1.58;1.58;;;;;;;;;;10473654;28;20226;-81
2022/09/05 05:49:13;;;;;;;2.33;1.52;;;;;;;;;;10497709;28;20213;-80
2022/09/05 05:54:38;;;;;;;1.35;1.35;;;;;;;;;;10495908;28;20710;-80
2022/09/05 05:59:39;;;;;;;1.58;1.45;;;;;;;;;;10468291;28;20209;-80
2022/09/05 06:05:06;;;;;;;2.10;1.98;;;;;;;;;;10497313;28;20249;-79
2022/09/05 06:10:17;;;;;;;1.65;1.60;;;;;;;;;;10446935;27;20589;-77
2022/09/05 06:15:24;;;;;;;1.60;1.60;;;;;;;;;;10362647;28;20179;-77
2022/09/05 06:20:31;;;;;;;2.25;1.88;;;;;;;;;;10359212;28;20292;-77
2022/09/05 06:25:51;;;;;;;1.70;1.70;;;;;;;;;;10364529;28;20232;-77
2022/09/05 06:30:58;;;;;;;1.60;1.60;;;;;;;;;;10358454;28;20204;-77
2022/09/05 06:36:18;;;;;;;1.67;1.67;;;;;;;;;;10354935;28;20915;-77
2022/09/05 06:41:29;;;;;;;2.15;2.03;;;;;;;;;;10354795;28;20250;-77
2022/09/05 06:46:34;;;;;;;1.85;1.70;;;;;;;;;;10356835;28;20549;-76
2022/09/05 06:51:40;;;;;;;2.05;1.95;;;;;;;;;;10341401;28;20279;-77
2022/09/05 06:56:58;;;;;;;2.13;2.13;;;;;;;;;;10357552;28;20219;-77
2022/09/05 07:02:07;;;;;;;2.28;1.83;;;;;;;;;;10369661;28;20315;-77
2022/09/05 07:07:12;;;;;;;2.50;2.40;;;;;;;;;;10353383;28;20255;-77
2022/09/05 07:12:19;;;;;;;1.77;1.75;;;;;;;;;;10351567;28;20223;-77
2022/09/05 07:17:40;;;;;;;2.17;2.13;;;;;;;;;;10331310;28;20248;-77
2022/09/05 07:22:42;;;;;;;2.25;2.15;;;;;;;;;;10325316;28;20227;-77
2022/09/05 07:27:48;;;;;;;1.92;1.92;;;;;;;;;;10323117;28;20668;-79
2022/09/05 07:32:54;;;;;;;2.28;2.10;;;;;;;;;;10316785;28;20229;-78
2022/09/05 07:38:03;;;;;;;2.08;1.98;;;;;;;;;;10327800;28;20300;-78
2022/09/05 07:43:40;;;;;;;2.35;2.20;;;;;;;;;;10330251;28;20241;-78
2022/09/05 07:48:43;;;;;;;2.50;2.40;;;;;;;;;;10311512;28;20803;-78
2022/09/05 07:53:46;;;;;;;3.88;2.90;;;;;;;;;;10312662;28;20212;-78
2022/09/05 07:58:50;;;;;;;2.65;2.42;;;;;;;;;;10325885;28;20212;-77
2022/09/05 08:03:56;;;;;;;2.67;2.47;;;;;;;;;;10329467;28;20244;-78
2022/09/05 08:09:15;;;;;;;4.95;4.55;;;;;;;;;;10383066;28;20735;-78
2022/09/05 08:14:24;;;;;;;6.53;6.05;;;;;;;;;;10368838;28;20223;-78
2022/09/05 08:19:36;;;;;;;3.08;2.83;;;;;;;;;;10366708;28;20230;-79
2022/09/05 08:24:38;;;;;;;21.40;17.00;;;;;;;;;;10368803;28;20227;-79
2022/09/05 08:29:41;;;;;;;2.95;2.72;;;;;;;;;;10354194;28;20326;-79
2022/09/05 08:34:42;;;;;;;3.08;2.88;;;;;;;;;;10368021;28;20259;-78
2022/09/05 08:39:44;;;;;;;3.00;2.80;;;;;;;;;;10368771;28;20803;-79
2022/09/05 08:45:04;;;;;;;2.20;2.10;;;;;;;;;;10363724;28;20223;-78
2022/09/05 08:50:15;;;;;;;2.78;2.67;;;;;;;;;;10351660;28;20326;-78
2022/09/05 08:55:35;;;;;;;2.90;2.80;;;;;;;;;;10368224;28;20177;-80
2022/09/05 09:00:43;;;;;;;2.75;2.55;;;;;;;;;;10371506;28;20227;-78
2022/09/05 09:06:08;;;;;;;2.30;2.30;;;;;;;;;;10372900;28;20258;-81
2022/09/05 09:11:33;;;;;;;3.05;2.85;;;;;;;;;;10366073;28;20255;-81
2022/09/05 09:16:39;;;;;;;3.03;2.83;;;;;;;;;;10368217;28;20220;-80
2022/09/05 09:21:48;;;;;;;3.00;2.80;;;;;;;;;;10367983;28;20235;-81
2022/09/05 09:26:52;;;;;;;3.47;3.28;;;;;;;;;;10379214;28;20233;-80
2022/09/05 09:31:59;;;;;;;2.42;2.33;;;;;;;;;;10356552;28;20211;-81
2022/09/05 09:37:00;;;;;;;3.40;3.22;;;;;;;;;;10348101;28;20839;-81
2022/09/05 09:42:17;;;;;;;2.85;2.75;;;;;;;;;;10366306;28;20214;-80
2022/09/05 09:47:24;;;;;;;2.17;2.17;;;;;;;;;;10363731;28;20247;-78
2022/09/05 09:52:31;;;;;;;2.58;2.38;;;;;;;;;;10360508;28;20208;-79
2022/09/05 09:57:34;;;;;;;2.95;2.85;;;;;;;;;;10381282;28;20934;-79
2022/09/05 10:02:35;;;;;;;2.83;2.70;;;;;;;;;;10359658;28;20809;-79
2022/09/05 10:07:51;;;;;;;2.33;2.22;;;;;;;;;;10351206;28;20249;-79
2022/09/05 10:13:08;;;;;;;2.70;2.60;;;;;;;;;;10344846;28;20221;-78
2022/09/05 10:18:19;;;;;;;2.50;2.40;;;;;;;;;;10357563;28;20757;-79
2022/09/05 10:23:55;;;;;;;2.53;2.42;;;;;;;;;;10331252;28;20281;-80
2022/09/05 10:28:56;;;;;;;1.80;1.70;;;;;;;;;;10300267;28;20251;-79
2022/09/05 10:34:14;;;;;;;1.83;1.80;;;;;;;;;;10333573;28;20220;-77
2022/09/05 10:39:19;;;;;;;2.08;2.08;;;;;;;;;;10355890;28;20212;-77
2022/09/05 10:44:42;;;;;;;2.15;2.05;;;;;;;;;;10361867;28;20227;-78
2022/09/05 10:49:44;;;;;;;2.05;2.05;;;;;;;;;;10371629;28;20220;-78
2022/09/05 10:54:57;;;;;;;2.03;2.03;;;;;;;;;;10346256;28;20224;-77
2022/09/05 11:00:05;;;;;;;4.18;3.97;;;;;;;;;;10373821;28;20219;-78
2022/09/05 11:05:21;;;;;;;2.97;2.78;;;;;;;;;;10389066;28;20234;-79
2022/09/05 11:10:24;;;;;;;2.03;2.03;;;;;;;;;;10393341;28;20216;-79
2022/09/05 11:15:25;;;;;;;2.10;2.00;;;;;;;;;;10389972;28;20638;-80
2022/09/05 11:20:52;;;;;;;1.80;1.80;;;;;;;;;;10370935;28;20722;-80
2022/09/05 11:25:59;;;;;;;1.95;1.85;;;;;;;;;;10368707;28;20595;-81
2022/09/05 11:31:01;;;;;;;1.55;1.55;;;;;;;;;;10361378;28;20592;-81
2022/09/05 11:36:07;;;;;;;1.77;1.77;;;;;;;;;;10384978;28;20647;-79
2022/09/05 11:41:10;;;;;;;1.50;1.50;;;;;;;;;;10361095;28;20239;-81
2022/09/05 11:46:26;;;;;;;1.65;1.65;;;;;;;;;;10365849;28;20481;-81
2022/09/05 11:51:27;;;;;;;1.67;1.67;;;;;;;;;;10359640;28;20238;-79
2022/09/05 11:56:38;;;;;;;2.47;2.47;;;;;;;;;;10379949;28;20216;-80
2022/09/05 12:01:45;;;;;;;1.05;1.05;;;;;;;;;;10363302;28;20216;-80
2022/09/05 12:07:04;;;;;;;1.40;1.40;;;;;;;;;;10368259;28;20228;-80
2022/09/05 12:12:22;;;;;;;1.65;1.65;;;;;;;;;;10377837;28;20719;-80
2022/09/05 12:17:38;;;;;;;1.52;1.52;;;;;;;;;;10370269;28;20216;-80
2022/09/05 12:22:46;;;;;;;1.23;1.23;;;;;;;;;;10361535;28;20229;-80
2022/09/05 12:27:50;;;;;;;1.30;1.30;;;;;;;;;;10366806;28;20263;-80
2022/09/05 12:32:52;;;;;;;1.50;1.50;;;;;;;;;;10367074;28;20225;-80
2022/09/05 12:38:02;;;;;;;1.42;1.42;;;;;;;;;;10373532;28;20614;-80
2022/09/05 12:43:04;;;;;;;1.45;1.42;;;;;;;;;;10369515;28;20216;-80
2022/09/05 12:48:06;;;;;;;1.20;1.20;;;;;;;;;;10365740;28;20282;-79
2022/09/05 12:53:10;;;;;;;1.17;1.17;;;;;;;;;;10366619;28;20633;-80
2022/09/05 12:58:17;;;;;;;1.20;1.20;;;;;;;;;;10357282;28;20302;-80
2022/09/05 13:03:22;;;;;;;1.20;1.20;;;;;;;;;;10374714;28;20225;-80
2022/09/05 13:08:26;;;;;;;1.20;1.20;;;;;;;;;;10367761;28;20220;-80
2022/09/05 13:13:31;;;;;;;1.23;1.23;;;;;;;;;;10343190;28;20231;-80
2022/09/05 13:18:38;;;;;;;1.13;1.13;;;;;;;;;;10368929;28;20212;-79
2022/09/05 13:24:03;;;;;;;1.45;1.45;;;;;;;;;;10372222;28;20759;-79
2022/09/05 13:29:17;;;;;;;1.30;1.30;;;;;;;;;;10358602;28;20224;-79
2022/09/05 13:34:22;;;;;;;1.63;1.52;;;;;;;;;;10375632;28;20298;-80
2022/09/05 13:39:27;;;;;;;1.33;1.33;;;;;;;;;;10364760;28;20215;-79
2022/09/05 13:44:28;;;;;;;1.20;1.20;;;;;;;;;;10360547;28;20221;-80
2022/09/05 13:49:36;;;;;;;1.13;1.13;;;;;;;;;;10371879;28;20238;-79
2022/09/05 13:54:41;;;;;;;1.02;1.02;;;;;;;;;;10350102;28;20223;-79
2022/09/05 13:59:59;;;;;;;1.05;1.05;;;;;;;;;;10361722;28;20358;-78
2022/09/05 14:05:17;;;;;;;1.35;1.35;;;;;;;;;;10363989;28;20215;-79
2022/09/05 14:10:28;;;;;;;1.15;1.10;;;;;;;;;;10360011;28;20303;-78
2022/09/05 14:15:29;;;;;;;1.30;1.30;;;;;;;;;;10371365;28;20230;-79
2022/09/05 14:26:00;;;;;;;1.20;1.20;;;;;;;;;;10356097;28;20219;-80
2022/09/05 14:31:06;;;;;;;1.15;1.15;;;;;;;;;;10388820;28;20216;-80
2022/09/05 14:36:26;;;;;;;1.30;1.30;;;;;;;;;;10378780;28;20626;-80
2022/09/05 14:41:46;;;;;;;1.15;1.15;;;;;;;;;;10366977;28;20215;-81
2022/09/05 14:47:05;;;;;;;1.48;1.45;;;;;;;;;;10370649;28;20685;-81
2022/09/05 14:52:29;;;;;;;1.30;1.20;;;;;;;;;;10366359;28;20203;-79
2022/09/05 14:57:32;;;;;;;1.50;1.50;;;;;;;;;;10375510;28;20303;-78
2022/09/05 15:02:39;;;;;;;1.40;1.30;;;;;;;;;;10376588;28;20234;-79
2022/09/05 15:07:41;;;;;;;1.20;1.20;;;;;;;;;;10372542;28;20289;-80
2022/09/05 15:12:47;;;;;;;1.30;1.30;;;;;;;;;;10370561;28;20215;-80
2022/09/05 15:17:51;;;;;;;1.73;1.73;;;;;;;;;;10372199;28;20577;-81
2022/09/05 15:22:53;;;;;;;1.48;1.48;;;;;;;;;;10357084;28;20451;-81
2022/09/05 15:27:54;;;;;;;1.70;1.70;;;;;;;;;;10369492;28;20262;-79
2022/09/05 15:33:17;;;;;;;1.40;1.40;;;;;;;;;;10357786;28;20312;-80
2022/09/05 15:38:20;;;;;;;1.48;1.48;;;;;;;;;;10384574;28;20218;-79
2022/09/05 15:43:23;;;;;;;1.70;1.70;;;;;;;;;;10392019;28;20312;-80
2022/09/05 15:48:24;;;;;;;1.52;1.52;;;;;;;;;;10378326;28;20255;-79
2022/09/05 15:53:33;;;;;;;1.60;1.60;;;;;;;;;;10360993;28;20208;-79
2022/09/05 15:58:35;;;;;;;1.17;1.08;;;;;;;;;;10385871;28;20614;-79
2022/09/05 16:03:38;;;;;;;1.20;1.20;;;;;;;;;;10377479;28;20230;-79
2022/09/05 16:08:44;;;;;;;1.90;1.90;;;;;;;;;;10371385;28;20235;-79
2022/09/05 16:13:45;;;;;;;1.58;1.58;;;;;;;;;;10358586;28;20216;-79
2022/09/05 16:18:49;;;;;;;1.80;1.80;;;;;;;;;;10355618;28;20642;-78
2022/09/05 16:23:55;;;;;;;1.40;1.40;;;;;;;;;;10372719;28;20212;-81
2022/09/05 16:29:05;;;;;;;1.85;1.85;;;;;;;;;;10370110;28;20611;-79
2022/09/05 16:34:07;;;;;;;1.60;1.60;;;;;;;;;;10361454;28;20647;-79
2022/09/05 16:39:15;;;;;;;1.80;1.80;;;;;;;;;;10383575;28;20216;-78
2022/09/05 16:44:26;;;;;;;1.70;1.70;;;;;;;;;;10362979;28;20306;-81
2022/09/05 16:49:29;;;;;;;1.40;1.40;;;;;;;;;;10376070;28;20204;-80
2022/09/05 16:54:49;;;;;;;1.48;1.48;;;;;;;;;;10375360;28;20223;-81
2022/09/05 16:59:50;;;;;;;2.15;1.40;;;;;;;;;;10373282;28;20263;-81
2022/09/05 17:05:24;;;;;;;1.58;1.58;;;;;;;;;;10369172;28;20278;-80
2022/09/05 17:10:26;;;;;;;1.30;1.30;;;;;;;;;;10369148;28;20232;-80
2022/09/05 17:15:30;;;;;;;1.55;1.55;;;;;;;;;;10373456;28;20238;-81
2022/09/05 17:20:35;;;;;;;1.48;1.48;;;;;;;;;;10375033;28;20227;-80
2022/09/05 17:25:58;;;;;;;1.40;1.40;;;;;;;;;;10347793;28;20315;-80
2022/09/05 17:31:01;;;;;;;1.75;1.75;;;;;;;;;;10378292;28;20274;-80
2022/09/05 17:36:07;;;;;;;1.35;1.35;;;;;;;;;;10379037;28;20208;-81
2022/09/05 17:41:32;;;;;;;1.55;1.52;;;;;;;;;;10373367;28;20346;-80
2022/09/05 17:46:33;;;;;;;1.45;1.42;;;;;;;;;;10375123;28;20226;-79
2022/09/05 17:51:34;;;;;;;1.60;1.60;;;;;;;;;;10372912;28;20351;-80
2022/09/05 17:56:35;;;;;;;1.80;1.70;;;;;;;;;;10370373;28;20211;-80
2022/09/05 18:01:36;;;;;;;2.13;2.03;;;;;;;;;;10367581;28;20631;-79
2022/09/05 18:06:39;;;;;;;1.90;1.90;;;;;;;;;;10359454;28;20235;-80
2022/09/05 18:12:03;;;;;;;1.40;1.40;;;;;;;;;;10370117;28;20227;-80
2022/09/05 18:17:24;;;;;;;1.75;1.75;;;;;;;;;;10369852;28;20442;-81
2022/09/05 18:22:31;;;;;;;1.80;1.80;;;;;;;;;;10407177;28;20210;-80
2022/09/05 18:27:42;;;;;;;1.83;1.73;;;;;;;;;;10405800;28;20743;-80
2022/09/05 18:32:52;;;;;;;2.15;2.13;;;;;;;;;;10412995;28;20217;-80
2022/09/05 18:38:07;;;;;;;1.77;1.77;;;;;;;;;;10417959;28;20223;-80
2022/09/05 18:43:23;;;;;;;2.08;2.08;;;;;;;;;;10412784;28;20214;-81
2022/09/05 18:48:27;;;;;;;1.90;1.90;;;;;;;;;;10373359;28;20214;-81
2022/09/05 18:53:29;;;;;;;2.28;2.28;;;;;;;;;;10408283;28;20207;-81
2022/09/05 18:58:32;;;;;;;2.72;2.63;;;;;;;;;;10407460;28;20242;-81
2022/09/05 19:03:34;;;;;;;2.35;2.28;;;;;;;;;;10386039;28;20789;-79
2022/09/05 19:08:36;;;;;;;1.95;1.95;;;;;;;;;;10398333;28;20248;-79
2022/09/05 19:13:40;;;;;;;3.17;2.28;;;;;;;;;;10369839;28;20265;-79
2022/09/05 19:19:00;;;;;;;2.63;2.53;;;;;;;;;;10405974;28;20236;-79
2022/09/05 19:24:03;;;;;;;2.60;2.50;;;;;;;;;;10390075;28;20251;-78
2022/09/05 19:29:06;;;;;;;2.80;2.63;;;;;;;;;;10405493;28;21835;-78
2022/09/05 19:34:11;;;;;;;2.40;2.30;;;;;;;;;;10404815;28;20214;-78
2022/09/05 19:39:13;;;;;;;3.03;2.92;;;;;;;;;;10399730;28;20326;-78
2022/09/05 19:44:28;;;;;;;3.00;2.90;;;;;;;;;;10381443;28;20239;-79
2022/09/05 19:49:29;;;;;;;2.67;2.47;;;;;;;;;;10401694;28;20214;-78
2022/09/05 19:54:31;;;;;;;3.25;3.10;;;;;;;;;;10380108;28;20358;-79
2022/09/05 19:59:37;;;;;;;2.70;2.63;;;;;;;;;;10374126;28;20781;-79
2022/09/05 20:04:45;;;;;;;4.80;2.97;;;;;;;;;;10409554;28;20227;-79
2022/09/05 20:09:47;;;;;;;3.10;2.90;;;;;;;;;;10407345;28;20259;-79
2022/09/05 20:14:48;;;;;;;3.05;2.95;;;;;;;;;;10392946;28;20281;-78
2022/09/05 20:20:03;;;;;;;3.10;3.00;;;;;;;;;;10412524;28;20717;-78
2022/09/05 20:25:22;;;;;;;2.33;2.20;;;;;;;;;;10410764;28;20241;-79
2022/09/05 20:30:30;;;;;;;2.67;2.67;;;;;;;;;;10372355;28;20239;-78
2022/09/05 20:35:34;;;;;;;3.20;3.10;;;;;;;;;;10405090;28;20250;-79
2022/09/05 20:40:35;;;;;;;3.28;3.13;;;;;;;;;;10404850;28;20220;-78
2022/09/05 20:45:56;;;;;;;3.83;3.65;;;;;;;;;;10406981;28;20731;-78
2022/09/05 20:50:58;;;;;;;3.35;3.15;;;;;;;;;;10372954;28;20580;-79
2022/09/05 20:56:06;;;;;;;3.00;2.90;;;;;;;;;;10407941;28;20290;-78
2022/09/05 21:01:16;;;;;;;3.08;3.08;;;;;;;;;;10419964;28;20198;-78
2022/09/05 21:06:19;;;;;;;3.17;3.08;;;;;;;;;;10417610;28;20534;-78
2022/09/05 21:11:28;;;;;;;3.40;3.28;;;;;;;;;;10406263;28;20219;-78
2022/09/05 21:16:34;;;;;;;2.97;2.83;;;;;;;;;;10393561;28;20298;-78
2022/09/05 21:21:35;;;;;;;2.67;2.58;;;;;;;;;;10373343;28;20247;-78
2022/09/05 21:26:37;;;;;;;3.35;3.25;;;;;;;;;;10394028;28;20222;-77
2022/09/05 21:31:41;;;;;;;3.00;2.90;;;;;;;;;;10394408;28;20207;-80
2022/09/05 21:36:42;;;;;;;2.75;2.75;;;;;;;;;;10413513;28;20260;-80
2022/09/05 21:41:44;;;;;;;3.08;2.88;;;;;;;;;;10389382;28;20215;-80
2022/09/05 21:46:46;;;;;;;2.88;2.78;;;;;;;;;;10374731;28;20212;-80
2022/09/05 21:51:49;;;;;;;2.70;2.60;;;;;;;;;;10376649;28;20595;-79
2022/09/05 21:56:54;;;;;;;2.45;2.35;;;;;;;;;;10389861;28;20783;-80
2022/09/05 22:01:56;;;;;;;2.95;2.85;;;;;;;;;;10364812;28;20216;-80
2022/09/05 22:06:57;;;;;;;2.55;2.45;;;;;;;;;;10386330;28;20222;-80
2022/09/05 22:11:58;;;;;;;2.97;2.88;;;;;;;;;;10371059;28;20217;-80
2022/09/05 22:17:00;;;;;;;2.38;2.28;;;;;;;;;;10389088;28;20240;-80
2022/09/05 22:22:14;;;;;;;2.38;2.30;;;;;;;;;;10411141;28;20276;-80
2022/09/05 22:27:18;;;;;;;2.70;2.60;;;;;;;;;;10407808;28;20219;-80
2022/09/05 22:32:22;;;;;;;2.45;2.42;;;;;;;;;;10385287;28;20207;-77
2022/09/05 22:37:24;;;;;;;2.72;2.63;;;;;;;;;;10445920;28;20234;-80
2022/09/05 22:42:26;;;;;;;2.33;2.22;;;;;;;;;;10422337;28;20223;-80
2022/09/05 22:47:28;;;;;;;2.63;2.53;;;;;;;;;;10403438;28;20222;-79
2022/09/05 22:52:29;;;;;;;2.58;2.47;;;;;;;;;;10375494;28;20229;-78
2022/09/05 22:57:30;;;;;;;2.25;2.15;;;;;;;;;;10392636;28;20241;-80
2022/09/05 23:02:33;;;;;;;1.83;1.83;;;;;;;;;;10385137;28;20879;-79
2022/09/05 23:07:34;;;;;;;2.17;2.17;;;;;;;;;;10411553;28;20237;-79
2022/09/05 23:12:36;;;;;;;2.45;2.35;;;;;;;;;;10394516;28;20207;-80
2022/09/05 23:17:37;;;;;;;2.03;2.03;;;;;;;;;;10408423;28;20219;-79
2022/09/05 23:22:38;;;;;;;1.95;1.88;;;;;;;;;;10399214;28;20732;-79
2022/09/05 23:27:39;;;;;;;2.50;2.40;;;;;;;;;;10404496;28;20282;-79
2022/09/05 23:32:44;;;;;;;2.17;2.15;;;;;;;;;;10394438;28;20219;-79
2022/09/05 23:37:46;;;;;;;2.10;2.00;;;;;;;;;;10386155;28;20746;-79
2022/09/05 23:42:59;;;;;;;2.33;2.22;;;;;;;;;;10394629;28;20218;-79
2022/09/05 23:48:01;;;;;;;1.75;1.75;;;;;;;;;;10393477;28;20229;-79
2022/09/05 23:53:03;;;;;;;2.20;2.10;;;;;;;;;;10399998;28;20271;-79
2022/09/05 23:58:04;;;;;;;2.70;2.60;;;;;;;;;;10412103;28;20226;-79
